createdAt,value
2023-03-05T00:02:06.629Z,58.70
2023-03-05T00:07:12.424Z,58.90
2023-03-05T00:12:15.529Z,58.97
2023-03-05T00:17:18.950Z,58.85
2023-03-05T00:22:22.113Z,59.16
2023-03-05T00:27:25.060Z,59.15
2023-03-05T00:32:28.252Z,59.25
2023-03-05T00:37:31.389Z,61.55
2023-03-05T00:42:38.851Z,65.37
2023-03-05T00:47:41.906Z,55.13
2023-03-05T00:52:45.011Z,52.34
2023-03-05T00:57:48.126Z,49.89
2023-03-05T01:02:51.100Z,48.51
2023-03-05T01:07:55.967Z,47.02
2023-03-05T01:12:58.884Z,46.89
2023-03-05T01:18:01.870Z,45.33
2023-03-05T01:23:04.867Z,44.23
2023-03-05T01:28:08.867Z,44.09
2023-03-05T01:33:11.805Z,44.04
2023-03-05T01:38:16.971Z,43.51
2023-03-05T01:43:28.767Z,43.70
2023-03-05T01:48:31.781Z,43.51
2023-03-05T01:53:34.880Z,43.72
2023-03-05T01:58:39.923Z,43.64
2023-03-05T02:03:43.190Z,42.87
2023-03-05T02:08:46.156Z,43.52
2023-03-05T02:13:49.575Z,43.89
2023-03-05T02:18:52.686Z,43.86
2023-03-05T02:23:55.692Z,43.49
2023-03-05T02:29:02.249Z,43.27
2023-03-05T02:34:06.469Z,43.35
2023-03-05T02:39:10.034Z,42.95
2023-03-05T02:44:12.940Z,43.15
2023-03-05T02:49:16.049Z,42.97
2023-03-05T02:54:19.059Z,42.87
2023-03-05T02:59:22.166Z,43.45
2023-03-05T03:04:26.094Z,43.96
2023-03-05T03:09:29.469Z,44.35
2023-03-05T03:14:39.298Z,44.44
2023-03-05T03:19:43.385Z,44.55
2023-03-05T03:24:46.281Z,44.97
2023-03-05T03:29:49.424Z,45.47
2023-03-05T03:34:52.430Z,45.86
2023-03-05T03:39:55.445Z,45.18
2023-03-05T03:44:58.546Z,45.93
2023-03-05T03:50:01.662Z,45.56
2023-03-05T03:55:05.128Z,45.37
2023-03-05T04:00:09.728Z,45.14
2023-03-05T04:05:12.725Z,45.43
2023-03-05T04:10:15.728Z,45.64
2023-03-05T04:15:19.054Z,45.70
2023-03-05T04:20:21.948Z,45.70
2023-03-05T04:25:24.884Z,46.14
2023-03-05T04:30:27.850Z,45.76
2023-03-05T04:35:31.119Z,46.05
2023-03-05T04:40:34.653Z,46.25
2023-03-05T04:45:40.711Z,46.94
2023-03-05T04:50:43.767Z,47.37
2023-03-05T04:55:46.910Z,47.32
2023-03-05T05:00:49.887Z,47.29
2023-03-05T05:05:57.194Z,47.51
2023-03-05T05:11:03.014Z,46.87
2023-03-05T05:16:09.299Z,48.42
2023-03-05T05:21:14.305Z,47.13
2023-03-05T05:26:17.311Z,48.15
2023-03-05T05:31:20.319Z,48.21
2023-03-05T05:36:23.426Z,47.61
2023-03-05T05:41:26.433Z,48.18
2023-03-05T05:46:29.669Z,46.09
2023-03-05T05:51:32.656Z,44.84
2023-03-05T05:56:35.782Z,46.48
2023-03-05T06:01:38.897Z,48.62
2023-03-05T06:06:42.182Z,50.62
2023-03-05T06:11:45.177Z,55.14
2023-03-05T06:16:48.445Z,56.70
2023-03-05T06:21:51.508Z,59.36
2023-03-05T06:26:54.520Z,55.39
2023-03-05T06:31:57.673Z,55.18
2023-03-05T06:37:00.738Z,49.92
2023-03-05T06:42:03.739Z,45.90
2023-03-05T06:47:09.418Z,44.66
2023-03-05T06:52:13.029Z,40.34
2023-03-05T06:57:16.036Z,40.35
2023-03-05T07:02:19.489Z,38.80
2023-03-05T07:07:22.663Z,37.49
2023-03-05T07:12:25.766Z,34.56
2023-03-05T07:17:28.781Z,32.63
2023-03-05T07:22:32.204Z,33.49
2023-03-05T07:27:37.147Z,32.30
2023-03-05T07:32:40.455Z,32.61
2023-03-05T07:37:43.584Z,32.45
2023-03-05T07:42:46.468Z,32.05
2023-03-05T07:47:51.070Z,31.12
2023-03-05T07:52:55.772Z,29.49
2023-03-05T07:57:58.969Z,28.05
2023-03-05T08:03:02.187Z,29.12
2023-03-05T08:08:05.790Z,27.73
2023-03-05T08:13:09.022Z,28.28
2023-03-05T08:18:13.966Z,29.77
2023-03-05T08:23:16.971Z,30.41
2023-03-05T08:28:20.085Z,33.63
2023-03-05T08:33:23.198Z,32.95
2023-03-05T08:38:26.954Z,32.81
2023-03-05T08:43:31.466Z,33.29
2023-03-05T08:48:35.273Z,35.92
2023-03-05T08:53:38.785Z,38.28
2023-03-05T08:58:42.445Z,40.81
2023-03-05T09:03:45.528Z,42.23
2023-03-05T09:08:48.554Z,43.39
2023-03-05T09:13:51.769Z,44.07
2023-03-05T09:18:54.756Z,45.39
2023-03-05T09:24:00.146Z,46.28
2023-03-05T09:29:03.748Z,46.92
2023-03-05T09:34:08.392Z,47.32
2023-03-05T09:39:11.902Z,46.78
2023-03-05T09:44:30.059Z,46.52
2023-03-05T09:50:02.046Z,46.00
2023-03-05T09:55:30.038Z,45.73
2023-03-05T10:00:45.363Z,45.44
2023-03-05T10:05:58.576Z,45.23
2023-03-05T10:11:08.829Z,45.64
2023-03-05T10:16:33.109Z,45.41
2023-03-05T10:21:57.172Z,45.01
2023-03-05T10:27:14.547Z,45.22
2023-03-05T10:32:45.181Z,45.10
2023-03-05T10:38:14.384Z,43.72
2023-03-05T10:43:37.564Z,42.82
2023-03-05T10:48:46.609Z,41.73
2023-03-05T10:54:02.213Z,42.69
2023-03-05T10:59:05.116Z,43.36
2023-03-05T11:04:26.549Z,44.06
2023-03-05T11:09:32.731Z,45.02
2023-03-05T11:33:20.633Z,42.02
2023-03-05T11:38:26.648Z,41.79
2023-03-05T11:43:31.480Z,41.16
2023-03-05T11:48:40.107Z,42.49
2023-03-05T11:53:46.333Z,45.05
2023-03-05T11:59:14.308Z,46.33
2023-03-05T12:04:18.561Z,47.52
2023-03-05T12:09:25.856Z,49.51
2023-03-05T12:14:58.664Z,51.64
2023-03-05T12:20:40.688Z,53.27
2023-03-05T12:25:59.464Z,54.02
2023-03-05T12:31:09.600Z,54.40
2023-03-05T12:36:22.075Z,54.06
2023-03-05T12:41:27.961Z,54.07
2023-03-05T12:46:35.964Z,53.32
2023-03-05T12:51:41.958Z,51.64
2023-03-05T12:56:47.384Z,50.88
2023-03-05T13:02:03.834Z,51.75
2023-03-05T13:07:15.529Z,51.65
2023-03-05T13:12:18.927Z,50.74
2023-03-05T13:17:35.877Z,50.01
2023-03-05T13:22:39.182Z,49.03
2023-03-05T13:27:43.598Z,45.80
2023-03-05T13:32:52.391Z,45.61
2023-03-05T13:37:57.183Z,45.58
2023-03-05T13:43:20.828Z,45.46
2023-03-05T13:48:25.656Z,44.93
2023-03-05T13:53:31.016Z,44.53
2023-03-05T13:58:40.783Z,44.01
2023-03-05T14:03:44.095Z,43.93
2023-03-05T14:08:53.248Z,44.23
2023-03-05T14:14:06.764Z,44.42
2023-03-05T14:19:32.126Z,44.43
2023-03-05T14:24:35.235Z,44.56
2023-03-05T14:29:38.354Z,44.58
2023-03-05T14:34:42.849Z,44.75
2023-03-05T14:40:00.981Z,45.16
2023-03-05T14:45:18.530Z,45.43
2023-03-05T14:50:24.610Z,45.99
2023-03-05T14:55:32.040Z,46.49
2023-03-05T15:00:35.428Z,46.68
2023-03-05T15:05:39.559Z,47.04
2023-03-05T15:10:43.185Z,47.70
2023-03-05T15:15:48.124Z,47.76
2023-03-05T15:20:54.934Z,48.09
2023-03-05T15:25:58.011Z,48.25
2023-03-05T15:31:01.354Z,48.13
2023-03-05T15:36:05.587Z,48.24
2023-03-05T15:41:08.568Z,48.12
2023-03-05T15:46:11.735Z,48.11
2023-03-05T15:51:14.889Z,48.71
2023-03-05T15:56:18.570Z,49.81
2023-03-05T16:01:23.572Z,51.83
2023-03-05T16:06:26.782Z,54.38
2023-03-05T16:11:32.802Z,55.34
2023-03-05T16:16:36.699Z,56.12
2023-03-05T16:21:40.045Z,58.65
2023-03-05T16:26:43.439Z,58.80
2023-03-05T16:31:47.782Z,59.60
2023-03-05T16:36:52.990Z,60.15
2023-03-05T16:41:57.973Z,61.04
2023-03-05T16:47:01.129Z,61.46
2023-03-05T16:52:17.736Z,63.39
2023-03-05T16:57:24.197Z,57.45
2023-03-05T17:02:27.408Z,58.91
2023-03-05T17:07:30.605Z,61.46
2023-03-05T17:12:33.726Z,62.51
2023-03-05T17:17:38.671Z,59.57
2023-03-05T17:22:41.887Z,53.74
2023-03-05T17:27:44.995Z,57.53
2023-03-05T17:32:48.095Z,60.69
2023-03-05T17:37:51.924Z,65.02
2023-03-05T17:42:55.234Z,61.58
2023-03-05T17:47:58.860Z,53.55
2023-03-05T17:53:02.077Z,55.03
2023-03-05T17:58:05.284Z,57.19
2023-03-05T18:03:08.489Z,59.85
2023-03-05T18:08:11.599Z,65.96
2023-03-05T18:13:14.615Z,67.29
2023-03-05T18:18:18.603Z,54.34
2023-03-05T18:23:21.880Z,53.69
2023-03-05T18:28:26.087Z,56.52
2023-03-05T18:33:29.189Z,58.61
2023-03-05T18:38:32.605Z,60.94
2023-03-05T18:43:35.824Z,67.81
2023-03-05T18:48:39.026Z,66.60
2023-03-05T18:53:42.156Z,61.83
2023-03-05T18:58:45.652Z,53.03
2023-03-05T19:03:49.427Z,54.02
2023-03-05T19:08:57.506Z,56.20
2023-03-05T19:14:00.620Z,57.96
2023-03-05T19:19:16.605Z,60.80
2023-03-05T19:24:24.218Z,69.22
2023-03-05T19:29:33.065Z,61.88
2023-03-05T19:34:37.220Z,57.38
2023-03-05T19:39:40.646Z,60.14
2023-03-05T19:44:43.746Z,63.69
2023-03-05T19:49:46.952Z,69.95
2023-03-05T19:54:50.161Z,59.92
2023-03-05T19:59:53.996Z,53.13
2023-03-05T20:04:57.809Z,55.24
2023-03-05T20:10:01.076Z,56.94
2023-03-05T20:15:04.473Z,59.29
2023-03-05T20:20:08.586Z,60.71
2023-03-05T20:25:13.634Z,64.73
2023-03-05T20:30:18.073Z,70.32
2023-03-05T20:35:21.904Z,61.99
2023-03-05T20:40:25.004Z,51.83
2023-03-05T20:45:28.228Z,53.45
2023-03-05T20:50:33.597Z,55.92
2023-03-05T20:55:36.696Z,57.47
2023-03-05T21:00:40.383Z,59.76
2023-03-05T21:05:43.428Z,66.09
2023-03-05T21:10:46.739Z,67.00
2023-03-05T21:15:49.847Z,55.95
2023-03-05T21:20:52.971Z,55.77
2023-03-05T21:25:56.094Z,57.14
2023-03-05T21:31:06.966Z,61.06
2023-03-05T21:36:10.380Z,68.63
2023-03-05T21:41:13.484Z,63.10
2023-03-05T21:46:16.674Z,53.65
2023-03-05T21:51:22.772Z,54.79
2023-03-05T21:56:26.592Z,59.68
2023-03-05T22:01:29.742Z,65.96
2023-03-05T22:06:32.802Z,63.44
2023-03-05T22:11:36.191Z,53.76
2023-03-05T22:16:39.253Z,56.76
2023-03-05T22:21:42.335Z,60.74
2023-03-05T22:26:45.455Z,64.02
2023-03-05T22:31:48.655Z,59.66
2023-03-05T22:36:51.767Z,53.20
2023-03-05T22:41:55.069Z,56.52
2023-03-05T22:46:58.178Z,61.77
2023-03-05T22:52:01.286Z,64.46
2023-03-05T22:57:05.043Z,57.57
2023-03-05T23:02:08.020Z,55.10
2023-03-05T23:07:11.048Z,59.46
2023-03-05T23:12:14.246Z,66.07
2023-03-05T23:17:17.475Z,62.59
2023-03-05T23:22:20.879Z,52.47
2023-03-05T23:27:23.989Z,55.70
2023-03-05T23:32:30.794Z,60.25
2023-03-05T23:37:33.888Z,64.24
2023-03-05T23:42:38.438Z,60.64
2023-03-05T23:47:41.743Z,51.23
2023-03-05T23:52:45.976Z,53.52
2023-03-05T23:57:49.391Z,60.59
